sensor_id;sensor_type;location;lat;lon;timestamp;pressure;altitude;pressure_sealevel;temperature;humidity
21236;BME280;10775;42.678;26.324;2022-09-30T00:01:10;98236.19;;;21.23;62.57
21236;BME280;10775;42.678;26.324;2022-09-30T00:03:35;98238.63;;;21.26;63.05
21236;BME280;10775;42.678;26.324;2022-09-30T00:06:04;98236.63;;;21.30;62.72
21236;BME280;10775;42.678;26.324;2022-09-30T00:08:30;98244.66;;;20.52;65.12
21236;BME280;10775;42.678;26.324;2022-09-30T00:11:04;98234.72;;;20.81;64.57
21236;BME280;10775;42.678;26.324;2022-09-30T00:13:34;98245.56;;;21.03;63.66
21236;BME280;10775;42.678;26.324;2022-09-30T00:16:01;98248.13;;;21.05;63.71
21236;BME280;10775;42.678;26.324;2022-09-30T00:18:27;98252.47;;;21.19;63.09
21236;BME280;10775;42.678;26.324;2022-09-30T00:20:53;98250.56;;;21.46;62.25
21236;BME280;10775;42.678;26.324;2022-09-30T00:23:20;98246.44;;;21.17;63.11
21236;BME280;10775;42.678;26.324;2022-09-30T00:25:46;98246.22;;;21.07;63.40
21236;BME280;10775;42.678;26.324;2022-09-30T00:28:13;98250.47;;;21.22;63.20
21236;BME280;10775;42.678;26.324;2022-09-30T00:30:39;98252.56;;;21.56;61.85
21236;BME280;10775;42.678;26.324;2022-09-30T00:33:04;98254.47;;;21.54;61.88
21236;BME280;10775;42.678;26.324;2022-09-30T00:35:30;98254.72;;;21.25;62.54
21236;BME280;10775;42.678;26.324;2022-09-30T00:37:56;98253.09;;;21.35;62.34
21236;BME280;10775;42.678;26.324;2022-09-30T00:40:21;98256.19;;;21.16;62.70
21236;BME280;10775;42.678;26.324;2022-09-30T00:42:47;98254.06;;;20.83;63.84
21236;BME280;10775;42.678;26.324;2022-09-30T00:45:14;98255.09;;;20.55;65.44
21236;BME280;10775;42.678;26.324;2022-09-30T00:48:07;98255.53;;;20.61;65.43
21236;BME280;10775;42.678;26.324;2022-09-30T00:50:41;98253.75;;;21.13;63.33
21236;BME280;10775;42.678;26.324;2022-09-30T00:53:38;98254.72;;;21.25;62.94
21236;BME280;10775;42.678;26.324;2022-09-30T00:56:11;98258.31;;;20.85;63.87
21236;BME280;10775;42.678;26.324;2022-09-30T00:58:42;98258.00;;;20.90;63.90
21236;BME280;10775;42.678;26.324;2022-09-30T01:01:09;98261.72;;;21.13;63.12
21236;BME280;10775;42.678;26.324;2022-09-30T01:03:42;98280.84;;;21.31;62.63
21236;BME280;10775;42.678;26.324;2022-09-30T01:06:09;98295.22;;;21.16;62.62
21236;BME280;10775;42.678;26.324;2022-09-30T01:08:37;98291.34;;;19.87;66.72
21236;BME280;10775;42.678;26.324;2022-09-30T01:11:03;98279.25;;;19.26;69.74
21236;BME280;10775;42.678;26.324;2022-09-30T01:13:30;98283.88;;;19.37;69.54
21236;BME280;10775;42.678;26.324;2022-09-30T01:40:31;98301.78;;;20.84;63.78
21236;BME280;10775;42.678;26.324;2022-09-30T01:43:30;98309.53;;;20.75;64.09
21236;BME280;10775;42.678;26.324;2022-09-30T01:49:29;98303.72;;;21.08;63.24
21236;BME280;10775;42.678;26.324;2022-09-30T01:52:07;98312.00;;;21.29;62.54
21236;BME280;10775;42.678;26.324;2022-09-30T01:57:53;98316.16;;;20.95;63.29
21236;BME280;10775;42.678;26.324;2022-09-30T02:00:22;98317.13;;;21.19;63.04
21236;BME280;10775;42.678;26.324;2022-09-30T02:03:02;98321.03;;;21.14;62.59
21236;BME280;10775;42.678;26.324;2022-09-30T02:05:39;98315.53;;;21.04;62.80
21236;BME280;10775;42.678;26.324;2022-09-30T02:08:18;98313.69;;;20.92;63.14
21236;BME280;10775;42.678;26.324;2022-09-30T02:10:47;98318.31;;;20.62;64.23
21236;BME280;10775;42.678;26.324;2022-09-30T02:13:21;98319.19;;;20.76;63.84
21236;BME280;10775;42.678;26.324;2022-09-30T02:16:03;98316.59;;;20.34;65.02
21236;BME280;10775;42.678;26.324;2022-09-30T02:19:00;98322.00;;;20.60;64.80
21236;BME280;10775;42.678;26.324;2022-09-30T02:21:31;98311.69;;;20.95;63.60
21236;BME280;10775;42.678;26.324;2022-09-30T02:24:02;98313.19;;;21.12;62.88
21236;BME280;10775;42.678;26.324;2022-09-30T02:26:38;98319.56;;;21.10;62.54
21236;BME280;10775;42.678;26.324;2022-09-30T02:31:41;98321.03;;;21.14;62.70
21236;BME280;10775;42.678;26.324;2022-09-30T02:34:11;98317.84;;;20.96;63.11
21236;BME280;10775;42.678;26.324;2022-09-30T02:36:46;98311.34;;;20.87;63.44
21236;BME280;10775;42.678;26.324;2022-09-30T02:39:40;98317.03;;;20.68;64.07
21236;BME280;10775;42.678;26.324;2022-09-30T02:42:17;98313.59;;;20.53;64.06
21236;BME280;10775;42.678;26.324;2022-09-30T02:44:50;98322.13;;;20.17;65.82
21236;BME280;10775;42.678;26.324;2022-09-30T02:58:26;98317.38;;;20.63;64.03
21236;BME280;10775;42.678;26.324;2022-09-30T03:00:52;98324.06;;;20.69;64.16
21236;BME280;10775;42.678;26.324;2022-09-30T03:05:51;98320.19;;;20.06;65.80
21236;BME280;10775;42.678;26.324;2022-09-30T03:08:17;98322.31;;;20.28;65.14
21236;BME280;10775;42.678;26.324;2022-09-30T03:10:43;98317.84;;;20.29;65.54
21236;BME280;10775;42.678;26.324;2022-09-30T03:24:56;98317.09;;;20.54;64.19
21236;BME280;10775;42.678;26.324;2022-09-30T03:30:17;98313.34;;;20.44;64.72
21236;BME280;10775;42.678;26.324;2022-09-30T03:32:56;98318.81;;;20.55;64.21
21236;BME280;10775;42.678;26.324;2022-09-30T03:40:53;98323.84;;;20.18;65.68
21236;BME280;10775;42.678;26.324;2022-09-30T03:43:28;98327.78;;;20.67;63.83
21236;BME280;10775;42.678;26.324;2022-09-30T03:46:29;98328.28;;;20.59;64.21
21236;BME280;10775;42.678;26.324;2022-09-30T03:48:55;98329.59;;;20.52;64.14
21236;BME280;10775;42.678;26.324;2022-09-30T03:51:21;98336.28;;;20.45;64.12
21236;BME280;10775;42.678;26.324;2022-09-30T03:53:49;98333.59;;;19.90;66.43
21236;BME280;10775;42.678;26.324;2022-09-30T03:56:23;98347.44;;;20.23;65.37
21236;BME280;10775;42.678;26.324;2022-09-30T03:58:49;98343.06;;;19.80;66.37
21236;BME280;10775;42.678;26.324;2022-09-30T04:01:18;98346.66;;;19.93;66.08
21236;BME280;10775;42.678;26.324;2022-09-30T04:03:49;98343.41;;;20.03;66.01
21236;BME280;10775;42.678;26.324;2022-09-30T04:06:20;98346.28;;;20.27;65.05
21236;BME280;10775;42.678;26.324;2022-09-30T04:08:46;98343.38;;;20.58;64.21
21236;BME280;10775;42.678;26.324;2022-09-30T04:11:12;98341.91;;;20.67;63.48
21236;BME280;10775;42.678;26.324;2022-09-30T04:13:38;98348.19;;;20.66;63.60
21236;BME280;10775;42.678;26.324;2022-09-30T04:16:04;98357.72;;;20.56;63.81
21236;BME280;10775;42.678;26.324;2022-09-30T04:18:30;98355.53;;;20.48;64.00
21236;BME280;10775;42.678;26.324;2022-09-30T04:20:57;98356.81;;;20.55;63.78
21236;BME280;10775;42.678;26.324;2022-09-30T04:23:23;98358.28;;;20.74;63.00
21236;BME280;10775;42.678;26.324;2022-09-30T04:25:55;98354.53;;;20.63;63.07
21236;BME280;10775;42.678;26.324;2022-09-30T04:28:21;98355.63;;;20.47;63.91
21236;BME280;10775;42.678;26.324;2022-09-30T04:30:47;98354.47;;;20.51;64.21
21236;BME280;10775;42.678;26.324;2022-09-30T04:33:13;98363.94;;;20.55;63.86
21236;BME280;10775;42.678;26.324;2022-09-30T04:35:38;98379.13;;;20.80;62.94
21236;BME280;10775;42.678;26.324;2022-09-30T04:38:05;98374.47;;;20.56;63.34
21236;BME280;10775;42.678;26.324;2022-09-30T04:40:35;98371.00;;;20.41;63.86
21236;BME280;10775;42.678;26.324;2022-09-30T04:43:01;98373.78;;;20.53;63.59
21236;BME280;10775;42.678;26.324;2022-09-30T04:45:26;98381.16;;;20.76;63.01
21236;BME280;10775;42.678;26.324;2022-09-30T04:47:52;98374.97;;;20.76;62.61
21236;BME280;10775;42.678;26.324;2022-09-30T04:50:18;98373.22;;;20.62;62.83
21236;BME280;10775;42.678;26.324;2022-09-30T04:52:43;98383.94;;;20.60;63.02
21236;BME280;10775;42.678;26.324;2022-09-30T04:55:10;98384.59;;;20.50;63.28
21236;BME280;10775;42.678;26.324;2022-09-30T04:57:36;98387.75;;;20.42;63.87
21236;BME280;10775;42.678;26.324;2022-09-30T05:00:03;98393.84;;;20.44;63.68
21236;BME280;10775;42.678;26.324;2022-09-30T05:02:28;98394.38;;;20.49;63.74
21236;BME280;10775;42.678;26.324;2022-09-30T05:04:54;98392.78;;;20.61;62.99
21236;BME280;10775;42.678;26.324;2022-09-30T05:07:20;98404.38;;;20.46;63.39
21236;BME280;10775;42.678;26.324;2022-09-30T05:09:46;98400.97;;;20.71;62.85
21236;BME280;10775;42.678;26.324;2022-09-30T05:12:12;98409.84;;;20.42;63.33
21236;BME280;10775;42.678;26.324;2022-09-30T05:14:40;98404.91;;;19.95;65.26
21236;BME280;10775;42.678;26.324;2022-09-30T05:17:05;98409.34;;;20.23;64.42
21236;BME280;10775;42.678;26.324;2022-09-30T05:19:31;98413.88;;;20.35;63.72
21236;BME280;10775;42.678;26.324;2022-09-30T05:21:57;98418.19;;;20.51;63.78
21236;BME280;10775;42.678;26.324;2022-09-30T05:24:23;98414.50;;;20.53;63.01
21236;BME280;10775;42.678;26.324;2022-09-30T05:26:48;98418.38;;;19.92;65.39
21236;BME280;10775;42.678;26.324;2022-09-30T05:29:14;98426.81;;;19.70;65.96
21236;BME280;10775;42.678;26.324;2022-09-30T05:31:40;98437.88;;;19.32;68.40
21236;BME280;10775;42.678;26.324;2022-09-30T05:34:06;98432.94;;;19.70;66.57
21236;BME280;10775;42.678;26.324;2022-09-30T05:36:32;98431.34;;;20.11;65.21
21236;BME280;10775;42.678;26.324;2022-09-30T05:38:58;98443.44;;;20.29;64.30
21236;BME280;10775;42.678;26.324;2022-09-30T05:41:24;98429.53;;;20.26;64.25
21236;BME280;10775;42.678;26.324;2022-09-30T05:43:50;98438.81;;;20.18;64.80
21236;BME280;10775;42.678;26.324;2022-09-30T05:46:17;98436.59;;;20.81;62.65
21236;BME280;10775;42.678;26.324;2022-09-30T05:48:43;98439.94;;;21.24;61.86
21236;BME280;10775;42.678;26.324;2022-09-30T05:51:08;98443.50;;;21.51;61.53
21236;BME280;10775;42.678;26.324;2022-09-30T05:53:36;98446.94;;;21.65;61.75
21236;BME280;10775;42.678;26.324;2022-09-30T05:56:08;98452.78;;;21.70;61.60
21236;BME280;10775;42.678;26.324;2022-09-30T05:58:34;98452.97;;;21.55;62.25
21236;BME280;10775;42.678;26.324;2022-09-30T06:01:04;98445.22;;;21.64;61.76
21236;BME280;10775;42.678;26.324;2022-09-30T06:03:34;98442.03;;;21.72;61.21
21236;BME280;10775;42.678;26.324;2022-09-30T06:06:00;98441.94;;;21.74;61.76
21236;BME280;10775;42.678;26.324;2022-09-30T06:08:26;98442.47;;;21.79;61.39
21236;BME280;10775;42.678;26.324;2022-09-30T06:10:52;98444.81;;;21.83;61.22
21236;BME280;10775;42.678;26.324;2022-09-30T06:13:18;98452.88;;;21.69;61.64
21236;BME280;10775;42.678;26.324;2022-09-30T06:15:57;98460.41;;;21.75;61.87
21236;BME280;10775;42.678;26.324;2022-09-30T06:18:23;98463.63;;;21.80;61.80
21236;BME280;10775;42.678;26.324;2022-09-30T06:20:51;98451.91;;;21.83;61.72
21236;BME280;10775;42.678;26.324;2022-09-30T06:23:17;98453.63;;;21.84;61.36
21236;BME280;10775;42.678;26.324;2022-09-30T06:25:42;98455.31;;;21.85;62.05
21236;BME280;10775;42.678;26.324;2022-09-30T06:28:09;98460.22;;;21.91;61.59
21236;BME280;10775;42.678;26.324;2022-09-30T06:30:35;98458.50;;;21.90;61.76
21236;BME280;10775;42.678;26.324;2022-09-30T06:33:01;98468.84;;;21.95;61.44
21236;BME280;10775;42.678;26.324;2022-09-30T06:35:27;98465.41;;;22.05;61.55
21236;BME280;10775;42.678;26.324;2022-09-30T06:37:53;98462.75;;;22.05;61.44
21236;BME280;10775;42.678;26.324;2022-09-30T06:40:19;98468.94;;;22.06;61.44
21236;BME280;10775;42.678;26.324;2022-09-30T06:42:49;98480.84;;;22.13;61.33
21236;BME280;10775;42.678;26.324;2022-09-30T06:45:15;98488.53;;;22.18;61.07
21236;BME280;10775;42.678;26.324;2022-09-30T06:47:44;98496.75;;;22.27;60.73
21236;BME280;10775;42.678;26.324;2022-09-30T06:50:11;98489.69;;;22.01;61.53
21236;BME280;10775;42.678;26.324;2022-09-30T06:52:36;98483.00;;;21.95;61.88
21236;BME280;10775;42.678;26.324;2022-09-30T06:55:02;98484.50;;;22.12;61.52
21236;BME280;10775;42.678;26.324;2022-09-30T06:57:28;98491.28;;;22.29;60.85
21236;BME280;10775;42.678;26.324;2022-09-30T06:59:54;98502.25;;;23.11;59.50
21236;BME280;10775;42.678;26.324;2022-09-30T07:02:20;98497.50;;;24.43;55.09
21236;BME280;10775;42.678;26.324;2022-09-30T07:04:46;98491.19;;;25.21;52.85
21236;BME280;10775;42.678;26.324;2022-09-30T07:07:12;98484.06;;;26.06;50.47
21236;BME280;10775;42.678;26.324;2022-09-30T07:09:38;98481.72;;;25.91;50.35
21236;BME280;10775;42.678;26.324;2022-09-30T07:12:04;98483.00;;;25.97;51.90
21236;BME280;10775;42.678;26.324;2022-09-30T07:14:31;98477.00;;;26.76;48.93
21236;BME280;10775;42.678;26.324;2022-09-30T07:16:58;98474.88;;;26.70;49.92
21236;BME280;10775;42.678;26.324;2022-09-30T07:19:23;98484.03;;;26.67;49.61
21236;BME280;10775;42.678;26.324;2022-09-30T07:21:49;98481.88;;;26.61;48.63
21236;BME280;10775;42.678;26.324;2022-09-30T07:24:16;98496.63;;;26.45;49.46
21236;BME280;10775;42.678;26.324;2022-09-30T07:26:42;98492.34;;;26.54;48.71
21236;BME280;10775;42.678;26.324;2022-09-30T07:29:13;98506.91;;;26.40;50.49
21236;BME280;10775;42.678;26.324;2022-09-30T07:31:40;98508.91;;;26.88;48.57
21236;BME280;10775;42.678;26.324;2022-09-30T07:34:06;98498.84;;;26.71;49.86
21236;BME280;10775;42.678;26.324;2022-09-30T07:36:34;98494.22;;;26.83;48.71
21236;BME280;10775;42.678;26.324;2022-09-30T07:39:04;98492.28;;;27.14;49.05
21236;BME280;10775;42.678;26.324;2022-09-30T07:41:30;98491.03;;;27.08;47.97
21236;BME280;10775;42.678;26.324;2022-09-30T07:43:57;98503.50;;;27.19;48.02
21236;BME280;10775;42.678;26.324;2022-09-30T07:46:31;98499.25;;;27.26;48.78
21236;BME280;10775;42.678;26.324;2022-09-30T07:48:58;98500.53;;;27.42;48.56
21236;BME280;10775;42.678;26.324;2022-09-30T07:51:41;98498.28;;;27.47;47.51
21236;BME280;10775;42.678;26.324;2022-09-30T07:54:14;98503.56;;;26.98;48.66
21236;BME280;10775;42.678;26.324;2022-09-30T07:56:41;98510.41;;;27.22;48.53
21236;BME280;10775;42.678;26.324;2022-09-30T07:59:09;98526.09;;;27.65;48.32
21236;BME280;10775;42.678;26.324;2022-09-30T08:01:35;98523.97;;;27.40;47.67
21236;BME280;10775;42.678;26.324;2022-09-30T08:04:05;98527.25;;;27.43;47.66
21236;BME280;10775;42.678;26.324;2022-09-30T08:06:34;98532.88;;;27.40;47.86
21236;BME280;10775;42.678;26.324;2022-09-30T08:09:01;98525.13;;;27.66;47.39
21236;BME280;10775;42.678;26.324;2022-09-30T08:11:26;98536.53;;;27.68;46.50
21236;BME280;10775;42.678;26.324;2022-09-30T08:13:54;98543.63;;;27.60;47.03
21236;BME280;10775;42.678;26.324;2022-09-30T08:16:21;98542.19;;;27.65;47.09
21236;BME280;10775;42.678;26.324;2022-09-30T08:18:47;98533.59;;;27.62;47.18
21236;BME280;10775;42.678;26.324;2022-09-30T08:21:13;98527.22;;;27.53;46.73
21236;BME280;10775;42.678;26.324;2022-09-30T08:23:39;98536.81;;;27.75;46.92
21236;BME280;10775;42.678;26.324;2022-09-30T08:26:12;98525.25;;;27.74;46.48
21236;BME280;10775;42.678;26.324;2022-09-30T08:28:39;98517.06;;;27.47;47.17
21236;BME280;10775;42.678;26.324;2022-09-30T08:31:11;98530.06;;;27.61;46.92
21236;BME280;10775;42.678;26.324;2022-09-30T08:33:38;98532.31;;;27.56;47.03
21236;BME280;10775;42.678;26.324;2022-09-30T08:36:06;98534.28;;;27.44;47.51
21236;BME280;10775;42.678;26.324;2022-09-30T08:38:33;98539.53;;;27.36;47.61
21236;BME280;10775;42.678;26.324;2022-09-30T08:44:01;98535.56;;;27.50;47.23
21236;BME280;10775;42.678;26.324;2022-09-30T08:46:47;98544.19;;;27.34;47.67
21236;BME280;10775;42.678;26.324;2022-09-30T08:49:37;98543.06;;;27.46;47.52
21236;BME280;10775;42.678;26.324;2022-09-30T08:52:11;98550.75;;;27.10;48.25
21236;BME280;10775;42.678;26.324;2022-09-30T08:54:42;98551.78;;;27.19;48.42
21236;BME280;10775;42.678;26.324;2022-09-30T08:57:11;98555.78;;;26.94;48.01
21236;BME280;10775;42.678;26.324;2022-09-30T08:59:41;98550.16;;;26.97;48.72
21236;BME280;10775;42.678;26.324;2022-09-30T09:04:37;98557.84;;;27.21;47.53
21236;BME280;10775;42.678;26.324;2022-09-30T09:12:44;98549.59;;;26.94;48.16
21236;BME280;10775;42.678;26.324;2022-09-30T09:23:45;98559.66;;;27.11;47.83
21236;BME280;10775;42.678;26.324;2022-09-30T09:26:14;98555.28;;;27.10;47.85
21236;BME280;10775;42.678;26.324;2022-09-30T09:29:02;98562.31;;;26.61;49.24
21236;BME280;10775;42.678;26.324;2022-09-30T09:31:30;98553.22;;;26.83;48.86
21236;BME280;10775;42.678;26.324;2022-09-30T09:34:07;98551.69;;;26.90;48.00
21236;BME280;10775;42.678;26.324;2022-09-30T09:42:02;98567.75;;;27.21;47.73
21236;BME280;10775;42.678;26.324;2022-09-30T09:44:37;98556.69;;;27.14;48.50
21236;BME280;10775;42.678;26.324;2022-09-30T09:47:13;98556.03;;;27.31;47.19
21236;BME280;10775;42.678;26.324;2022-09-30T09:50:18;98553.97;;;26.95;48.37
21236;BME280;10775;42.678;26.324;2022-09-30T09:52:56;98561.38;;;27.22;48.42
21236;BME280;10775;42.678;26.324;2022-09-30T09:55:25;98559.63;;;27.01;48.32
21236;BME280;10775;42.678;26.324;2022-09-30T09:58:11;98557.03;;;26.80;48.75
21236;BME280;10775;42.678;26.324;2022-09-30T10:00:42;98557.38;;;26.56;49.52
21236;BME280;10775;42.678;26.324;2022-09-30T10:03:13;98547.91;;;26.52;49.38
21236;BME280;10775;42.678;26.324;2022-09-30T10:08:26;98554.34;;;27.21;47.45
21236;BME280;10775;42.678;26.324;2022-09-30T10:11:00;98553.47;;;27.30;47.22
21236;BME280;10775;42.678;26.324;2022-09-30T10:16:03;98555.50;;;27.67;46.48
21236;BME280;10775;42.678;26.324;2022-09-30T10:18:33;98559.00;;;27.48;46.44
21236;BME280;10775;42.678;26.324;2022-09-30T10:21:01;98556.03;;;27.31;46.40
21236;BME280;10775;42.678;26.324;2022-09-30T10:23:39;98546.59;;;27.47;45.82
21236;BME280;10775;42.678;26.324;2022-09-30T10:28:54;98547.00;;;27.81;45.24
21236;BME280;10775;42.678;26.324;2022-09-30T10:36:40;98536.97;;;27.64;45.40
21236;BME280;10775;42.678;26.324;2022-09-30T10:39:28;98544.19;;;27.83;45.47
21236;BME280;10775;42.678;26.324;2022-09-30T10:42:23;98535.13;;;27.84;45.86
21236;BME280;10775;42.678;26.324;2022-09-30T10:44:59;98534.81;;;27.96;44.80
21236;BME280;10775;42.678;26.324;2022-09-30T10:47:31;98526.50;;;27.80;46.29
21236;BME280;10775;42.678;26.324;2022-09-30T10:50:07;98539.06;;;27.21;47.21
21236;BME280;10775;42.678;26.324;2022-09-30T10:52:47;98521.59;;;27.46;45.46
21236;BME280;10775;42.678;26.324;2022-09-30T10:57:46;98520.84;;;28.03;44.35
21236;BME280;10775;42.678;26.324;2022-09-30T11:00:21;98515.38;;;27.46;45.34
21236;BME280;10775;42.678;26.324;2022-09-30T11:02:54;98522.56;;;27.65;46.75
21236;BME280;10775;42.678;26.324;2022-09-30T11:05:35;98522.13;;;27.60;45.41
21236;BME280;10775;42.678;26.324;2022-09-30T11:18:40;98535.84;;;27.95;44.93
21236;BME280;10775;42.678;26.324;2022-09-30T11:21:20;98532.53;;;28.11;43.34
21236;BME280;10775;42.678;26.324;2022-09-30T11:23:54;98539.09;;;27.89;47.57
21236;BME280;10775;42.678;26.324;2022-09-30T11:29:35;98533.88;;;27.88;44.72
21236;BME280;10775;42.678;26.324;2022-09-30T11:32:18;98528.69;;;28.24;43.39
21236;BME280;10775;42.678;26.324;2022-09-30T11:40:43;98521.72;;;28.40;43.82
21236;BME280;10775;42.678;26.324;2022-09-30T11:43:34;98525.94;;;28.43;43.41
21236;BME280;10775;42.678;26.324;2022-09-30T11:46:25;98525.47;;;28.10;44.19
21236;BME280;10775;42.678;26.324;2022-09-30T11:57:17;98516.38;;;28.31;42.48
21236;BME280;10775;42.678;26.324;2022-09-30T12:02:28;98512.47;;;28.80;40.67
21236;BME280;10775;42.678;26.324;2022-09-30T12:04:58;98516.09;;;28.24;41.44
21236;BME280;10775;42.678;26.324;2022-09-30T12:10:13;98517.63;;;28.74;40.73
21236;BME280;10775;42.678;26.324;2022-09-30T12:12:41;98516.78;;;28.46;42.03
21236;BME280;10775;42.678;26.324;2022-09-30T12:15:15;98513.31;;;28.16;42.54
21236;BME280;10775;42.678;26.324;2022-09-30T12:17:50;98524.78;;;27.99;46.06
21236;BME280;10775;42.678;26.324;2022-09-30T12:23:20;98509.91;;;28.14;44.07
21236;BME280;10775;42.678;26.324;2022-09-30T12:25:57;98514.47;;;28.04;42.55
21236;BME280;10775;42.678;26.324;2022-09-30T12:31:36;98518.41;;;28.09;45.04
21236;BME280;10775;42.678;26.324;2022-09-30T12:36:50;98504.88;;;27.91;42.10
21236;BME280;10775;42.678;26.324;2022-09-30T12:45:06;98519.00;;;28.78;39.30
21236;BME280;10775;42.678;26.324;2022-09-30T12:47:48;98519.41;;;28.83;41.57
21236;BME280;10775;42.678;26.324;2022-09-30T12:50:20;98519.09;;;28.86;39.06
21236;BME280;10775;42.678;26.324;2022-09-30T12:52:46;98508.69;;;28.73;40.68
21236;BME280;10775;42.678;26.324;2022-09-30T12:55:21;98525.16;;;28.60;41.47
21236;BME280;10775;42.678;26.324;2022-09-30T12:57:53;98517.81;;;28.63;39.55
21236;BME280;10775;42.678;26.324;2022-09-30T13:00:25;98522.88;;;28.28;39.64
21236;BME280;10775;42.678;26.324;2022-09-30T13:03:04;98519.22;;;28.19;40.44
21236;BME280;10775;42.678;26.324;2022-09-30T13:13:14;98532.81;;;28.18;43.33
21236;BME280;10775;42.678;26.324;2022-09-30T13:15:44;98528.50;;;28.35;39.63
21236;BME280;10775;42.678;26.324;2022-09-30T13:23:38;98530.66;;;28.22;39.79
21236;BME280;10775;42.678;26.324;2022-09-30T13:26:34;98531.19;;;28.35;39.79
21236;BME280;10775;42.678;26.324;2022-09-30T13:31:28;98529.97;;;28.67;39.25
21236;BME280;10775;42.678;26.324;2022-09-30T13:39:22;98541.13;;;28.72;39.40
21236;BME280;10775;42.678;26.324;2022-09-30T13:45:03;98540.06;;;28.55;38.09
21236;BME280;10775;42.678;26.324;2022-09-30T13:47:39;98545.13;;;28.58;39.95
21236;BME280;10775;42.678;26.324;2022-09-30T13:50:15;98544.06;;;28.41;38.92
21236;BME280;10775;42.678;26.324;2022-09-30T13:52:45;98548.91;;;28.28;39.95
21236;BME280;10775;42.678;26.324;2022-09-30T13:55:25;98540.66;;;28.49;38.81
21236;BME280;10775;42.678;26.324;2022-09-30T14:06:45;98545.75;;;27.56;42.30
21236;BME280;10775;42.678;26.324;2022-09-30T14:21:17;98533.88;;;28.35;39.32
21236;BME280;10775;42.678;26.324;2022-09-30T14:23:45;98538.16;;;28.28;38.10
21236;BME280;10775;42.678;26.324;2022-09-30T14:26:39;98528.06;;;28.02;39.49
21236;BME280;10775;42.678;26.324;2022-09-30T14:31:46;98545.41;;;28.17;38.49
21236;BME280;10775;42.678;26.324;2022-09-30T14:34:15;98552.56;;;28.36;38.76
21236;BME280;10775;42.678;26.324;2022-09-30T14:36:44;98557.94;;;28.46;38.44
21236;BME280;10775;42.678;26.324;2022-09-30T14:39:15;98553.81;;;28.42;38.95
21236;BME280;10775;42.678;26.324;2022-09-30T14:41:49;98563.00;;;28.39;39.01
21236;BME280;10775;42.678;26.324;2022-09-30T14:44:16;98566.13;;;28.35;38.49
21236;BME280;10775;42.678;26.324;2022-09-30T14:46:45;98570.97;;;28.31;39.22
21236;BME280;10775;42.678;26.324;2022-09-30T14:49:15;98571.69;;;28.24;39.20
21236;BME280;10775;42.678;26.324;2022-09-30T14:51:45;98572.41;;;28.16;39.36
21236;BME280;10775;42.678;26.324;2022-09-30T14:54:22;98580.19;;;28.19;40.24
21236;BME280;10775;42.678;26.324;2022-09-30T14:56:51;98574.44;;;27.94;40.80
21236;BME280;10775;42.678;26.324;2022-09-30T14:59:30;98575.00;;;27.88;40.63
21236;BME280;10775;42.678;26.324;2022-09-30T15:02:10;98580.78;;;27.93;40.25
21236;BME280;10775;42.678;26.324;2022-09-30T15:04:39;98574.88;;;27.90;40.80
21236;BME280;10775;42.678;26.324;2022-09-30T15:07:10;98589.84;;;27.83;40.67
21236;BME280;10775;42.678;26.324;2022-09-30T15:09:44;98584.34;;;27.84;40.70
21236;BME280;10775;42.678;26.324;2022-09-30T15:12:17;98589.69;;;27.74;41.03
21236;BME280;10775;42.678;26.324;2022-09-30T15:14:52;98593.63;;;27.70;40.91
21236;BME280;10775;42.678;26.324;2022-09-30T15:17:20;98595.19;;;27.63;41.20
21236;BME280;10775;42.678;26.324;2022-09-30T15:19:46;98589.38;;;27.58;41.42
21236;BME280;10775;42.678;26.324;2022-09-30T15:22:15;98594.44;;;27.32;42.44
21236;BME280;10775;42.678;26.324;2022-09-30T15:24:42;98600.06;;;27.19;43.18
21236;BME280;10775;42.678;26.324;2022-09-30T15:27:23;98614.34;;;26.58;44.55
21236;BME280;10775;42.678;26.324;2022-09-30T15:29:55;98614.88;;;26.10;45.84
21236;BME280;10775;42.678;26.324;2022-09-30T15:32:23;98614.06;;;25.77;46.75
21236;BME280;10775;42.678;26.324;2022-09-30T15:34:50;98621.16;;;25.67;47.09
21236;BME280;10775;42.678;26.324;2022-09-30T15:37:22;98618.88;;;25.51;47.36
21236;BME280;10775;42.678;26.324;2022-09-30T15:39:49;98623.13;;;25.54;48.30
21236;BME280;10775;42.678;26.324;2022-09-30T15:42:39;98620.84;;;25.49;48.02
21236;BME280;10775;42.678;26.324;2022-09-30T15:47:54;98628.72;;;25.19;49.19
21236;BME280;10775;42.678;26.324;2022-09-30T15:50:35;98636.34;;;25.23;49.45
21236;BME280;10775;42.678;26.324;2022-09-30T15:53:13;98635.75;;;25.08;49.75
21236;BME280;10775;42.678;26.324;2022-09-30T15:55:43;98637.31;;;25.00;50.17
21236;BME280;10775;42.678;26.324;2022-09-30T16:03:34;98645.44;;;24.53;51.48
21236;BME280;10775;42.678;26.324;2022-09-30T16:06:11;98643.03;;;24.61;51.04
21236;BME280;10775;42.678;26.324;2022-09-30T16:08:43;98642.53;;;24.56;51.74
21236;BME280;10775;42.678;26.324;2022-09-30T16:11:29;98645.94;;;24.47;51.52
21236;BME280;10775;42.678;26.324;2022-09-30T16:13:57;98656.38;;;24.50;53.95
21236;BME280;10775;42.678;26.324;2022-09-30T16:16:25;98655.53;;;24.49;51.14
21236;BME280;10775;42.678;26.324;2022-09-30T16:18:54;98654.06;;;24.45;51.84
21236;BME280;10775;42.678;26.324;2022-09-30T16:23:55;98661.66;;;24.39;53.02
21236;BME280;10775;42.678;26.324;2022-09-30T16:26:27;98663.13;;;24.32;52.09
21236;BME280;10775;42.678;26.324;2022-09-30T16:28:53;98676.19;;;24.23;52.32
21236;BME280;10775;42.678;26.324;2022-09-30T16:31:21;98664.28;;;24.16;52.66
21236;BME280;10775;42.678;26.324;2022-09-30T16:33:48;98675.09;;;24.26;52.78
21236;BME280;10775;42.678;26.324;2022-09-30T16:36:14;98676.34;;;24.33;55.76
21236;BME280;10775;42.678;26.324;2022-09-30T16:38:40;98682.97;;;24.16;55.75
21236;BME280;10775;42.678;26.324;2022-09-30T16:41:15;98675.97;;;24.26;55.07
21236;BME280;10775;42.678;26.324;2022-09-30T16:43:41;98681.41;;;24.60;55.61